sensor_id;sensor_type;location;lat;lon;timestamp;pressure;altitude;pressure_sealevel;temperature;humidity
80648;BME280;70012;0.000;0.000;2024-02-23T00:01:08;98143.91;;;4.73;81.91
80648;BME280;70012;0.000;0.000;2024-02-23T00:03:37;98149.34;;;4.78;82.19
80648;BME280;70012;0.000;0.000;2024-02-23T00:06:04;98150.41;;;4.72;82.36
80648;BME280;70012;0.000;0.000;2024-02-23T00:08:31;98162.38;;;4.71;81.98
80648;BME280;70012;0.000;0.000;2024-02-23T00:11:00;98158.81;;;4.65;82.78
80648;BME280;70012;0.000;0.000;2024-02-23T00:13:27;98174.00;;;4.67;82.89
80648;BME280;70012;0.000;0.000;2024-02-23T00:15:54;98151.50;;;4.61;83.05
80648;BME280;70012;0.000;0.000;2024-02-23T00:18:21;98171.00;;;4.63;83.14
80648;BME280;70012;0.000;0.000;2024-02-23T00:20:48;98173.72;;;4.58;82.95
80648;BME280;70012;0.000;0.000;2024-02-23T00:23:14;98173.44;;;4.54;82.77
80648;BME280;70012;0.000;0.000;2024-02-23T00:25:41;98155.78;;;4.46;82.28
80648;BME280;70012;0.000;0.000;2024-02-23T00:28:08;98178.56;;;4.51;81.83
80648;BME280;70012;0.000;0.000;2024-02-23T00:30:35;98179.09;;;4.47;81.14
80648;BME280;70012;0.000;0.000;2024-02-23T00:33:03;98191.00;;;4.46;81.15
80648;BME280;70012;0.000;0.000;2024-02-23T00:35:30;98207.25;;;4.41;80.60
80648;BME280;70012;0.000;0.000;2024-02-23T00:37:57;98209.97;;;4.36;79.92
80648;BME280;70012;0.000;0.000;2024-02-23T00:40:24;98206.41;;;4.36;80.20
80648;BME280;70012;0.000;0.000;2024-02-23T00:42:51;98218.03;;;4.26;80.60
80648;BME280;70012;0.000;0.000;2024-02-23T00:45:19;98212.31;;;4.22;80.49
80648;BME280;70012;0.000;0.000;2024-02-23T00:47:46;98217.72;;;4.22;80.81
80648;BME280;70012;0.000;0.000;2024-02-23T00:50:13;98225.03;;;4.16;81.84
80648;BME280;70012;0.000;0.000;2024-02-23T00:52:41;98222.81;;;4.08;81.04
80648;BME280;70012;0.000;0.000;2024-02-23T00:55:08;98221.19;;;4.07;80.92
80648;BME280;70012;0.000;0.000;2024-02-23T00:57:37;98235.28;;;4.04;81.49
80648;BME280;70012;0.000;0.000;2024-02-23T01:00:06;98241.75;;;4.03;80.49
80648;BME280;70012;0.000;0.000;2024-02-23T01:02:38;98235.50;;;3.97;80.39
80648;BME280;70012;0.000;0.000;2024-02-23T01:05:05;98248.75;;;3.99;80.35
80648;BME280;70012;0.000;0.000;2024-02-23T01:07:33;98250.88;;;3.92;80.30
80648;BME280;70012;0.000;0.000;2024-02-23T01:09:59;98250.06;;;3.91;80.29
80648;BME280;70012;0.000;0.000;2024-02-23T01:12:27;98252.78;;;3.91;80.07
80648;BME280;70012;0.000;0.000;2024-02-23T01:14:54;98254.63;;;3.85;80.03
80648;BME280;70012;0.000;0.000;2024-02-23T01:17:20;98269.81;;;3.92;80.46
80648;BME280;70012;0.000;0.000;2024-02-23T01:19:47;98270.94;;;3.91;80.12
80648;BME280;70012;0.000;0.000;2024-02-23T01:22:14;98270.56;;;3.82;79.66
80648;BME280;70012;0.000;0.000;2024-02-23T01:24:41;98272.47;;;3.81;79.88
80648;BME280;70012;0.000;0.000;2024-02-23T01:27:09;98280.09;;;3.84;79.56
80648;BME280;70012;0.000;0.000;2024-02-23T01:29:36;98280.09;;;3.84;79.43
80648;BME280;70012;0.000;0.000;2024-02-23T01:32:03;98271.38;;;3.77;79.46
80648;BME280;70012;0.000;0.000;2024-02-23T01:34:30;98281.09;;;3.78;79.44
80648;BME280;70012;0.000;0.000;2024-02-23T01:36:56;98282.19;;;3.77;79.95
80648;BME280;70012;0.000;0.000;2024-02-23T01:39:23;98281.09;;;3.78;79.58
80648;BME280;70012;0.000;0.000;2024-02-23T01:41:50;98283.28;;;3.76;79.52
80648;BME280;70012;0.000;0.000;2024-02-23T01:44:17;98285.97;;;3.76;79.70
80648;BME280;70012;0.000;0.000;2024-02-23T01:46:44;98286.22;;;3.75;79.38
80648;BME280;70012;0.000;0.000;2024-02-23T01:49:12;98277.53;;;3.67;79.66
80648;BME280;70012;0.000;0.000;2024-02-23T01:51:38;98283.19;;;3.66;79.72
80648;BME280;70012;0.000;0.000;2024-02-23T01:54:06;98294.31;;;3.69;80.04
80648;BME280;70012;0.000;0.000;2024-02-23T01:56:33;98301.06;;;3.67;79.58
80648;BME280;70012;0.000;0.000;2024-02-23T01:59:03;98295.63;;;3.67;79.73
80648;BME280;70012;0.000;0.000;2024-02-23T02:01:31;98315.66;;;3.66;79.78
80648;BME280;70012;0.000;0.000;2024-02-23T02:03:58;98312.41;;;3.64;80.00
80648;BME280;70012;0.000;0.000;2024-02-23T02:06:25;98313.97;;;3.60;79.89
80648;BME280;70012;0.000;0.000;2024-02-23T02:08:54;98307.72;;;3.54;79.34
80648;BME280;70012;0.000;0.000;2024-02-23T02:11:21;98329.38;;;3.54;79.76
80648;BME280;70012;0.000;0.000;2024-02-23T02:13:48;98317.97;;;3.52;79.45
80648;BME280;70012;0.000;0.000;2024-02-23T02:16:15;98319.03;;;3.51;79.16
80648;BME280;70012;0.000;0.000;2024-02-23T02:18:42;98319.56;;;3.48;78.96
80648;BME280;70012;0.000;0.000;2024-02-23T02:21:11;98318.78;;;3.52;78.82
80648;BME280;70012;0.000;0.000;2024-02-23T02:23:38;98326.91;;;3.52;78.88
80648;BME280;70012;0.000;0.000;2024-02-23T02:26:07;98324.72;;;3.49;78.06
80648;BME280;70012;0.000;0.000;2024-02-23T02:28:34;98319.03;;;3.51;78.53
80648;BME280;70012;0.000;0.000;2024-02-23T02:31:01;98317.09;;;3.46;78.22
80648;BME280;70012;0.000;0.000;2024-02-23T02:33:27;98328.22;;;3.50;78.13
80648;BME280;70012;0.000;0.000;2024-02-23T02:35:54;98340.69;;;3.51;78.24
80648;BME280;70012;0.000;0.000;2024-02-23T02:38:23;98337.63;;;3.42;78.02
80648;BME280;70012;0.000;0.000;2024-02-23T02:40:50;98340.59;;;3.41;78.02
80648;BME280;70012;0.000;0.000;2024-02-23T02:43:17;98343.31;;;3.41;78.51
80648;BME280;70012;0.000;0.000;2024-02-23T02:45:44;98350.34;;;3.42;78.09
80648;BME280;70012;0.000;0.000;2024-02-23T02:48:11;98358.13;;;3.38;78.81
80648;BME280;70012;0.000;0.000;2024-02-23T02:50:38;98356.75;;;3.35;78.37
80648;BME280;70012;0.000;0.000;2024-02-23T02:53:06;98366.22;;;3.33;78.00
80648;BME280;70012;0.000;0.000;2024-02-23T02:55:33;98372.75;;;3.37;78.17
80648;BME280;70012;0.000;0.000;2024-02-23T02:58:00;98361.31;;;3.30;77.69
80648;BME280;70012;0.000;0.000;2024-02-23T03:00:27;98373.25;;;3.34;78.08
80648;BME280;70012;0.000;0.000;2024-02-23T03:02:54;98363.47;;;3.28;78.04
80648;BME280;70012;0.000;0.000;2024-02-23T03:05:21;98373.78;;;3.31;77.59
80648;BME280;70012;0.000;0.000;2024-02-23T03:07:48;98379.19;;;3.31;77.46
80648;BME280;70012;0.000;0.000;2024-02-23T03:10:15;98356.94;;;3.24;77.60
80648;BME280;70012;0.000;0.000;2024-02-23T03:12:42;98361.31;;;3.30;77.54
80648;BME280;70012;0.000;0.000;2024-02-23T03:15:09;98352.63;;;3.28;77.43
80648;BME280;70012;0.000;0.000;2024-02-23T03:17:36;98361.06;;;3.31;77.14
80648;BME280;70012;0.000;0.000;2024-02-23T03:20:05;98376.72;;;3.29;76.98
80648;BME280;70012;0.000;0.000;2024-02-23T03:22:35;98365.59;;;3.26;77.29
80648;BME280;70012;0.000;0.000;2024-02-23T03:25:04;98365.66;;;3.31;77.08
80648;BME280;70012;0.000;0.000;2024-02-23T03:27:36;98363.47;;;3.28;77.04
80648;BME280;70012;0.000;0.000;2024-02-23T03:30:04;98372.16;;;3.30;76.91
80648;BME280;70012;0.000;0.000;2024-02-23T03:32:31;98375.38;;;3.32;77.09
80648;BME280;70012;0.000;0.000;2024-02-23T03:35:04;98370.50;;;3.29;76.63
80648;BME280;70012;0.000;0.000;2024-02-23T03:37:31;98368.56;;;3.24;76.83
80648;BME280;70012;0.000;0.000;2024-02-23T03:39:58;98374.28;;;3.28;76.71
80648;BME280;70012;0.000;0.000;2024-02-23T03:42:26;98365.53;;;3.20;76.83
80648;BME280;70012;0.000;0.000;2024-02-23T03:44:54;98374.97;;;3.18;76.46
80648;BME280;70012;0.000;0.000;2024-02-23T03:47:21;98375.88;;;3.24;76.89
80648;BME280;70012;0.000;0.000;2024-02-23T03:49:48;98369.31;;;3.19;77.18
80648;BME280;70012;0.000;0.000;2024-02-23T03:52:15;98363.34;;;3.17;77.03
80648;BME280;70012;0.000;0.000;2024-02-23T03:54:43;98375.56;;;3.20;77.23
80648;BME280;70012;0.000;0.000;2024-02-23T03:57:10;98376.63;;;3.19;77.17
80648;BME280;70012;0.000;0.000;2024-02-23T03:59:37;98366.56;;;3.14;76.97
80648;BME280;70012;0.000;0.000;2024-02-23T04:02:04;98368.19;;;3.15;77.10
80648;BME280;70012;0.000;0.000;2024-02-23T04:04:31;98354.06;;;3.08;77.38
80648;BME280;70012;0.000;0.000;2024-02-23T04:06:58;98356.44;;;3.04;77.48
80648;BME280;70012;0.000;0.000;2024-02-23T04:09:25;98373.03;;;3.13;77.61
80648;BME280;70012;0.000;0.000;2024-02-23T04:11:53;98370.91;;;3.15;77.48
80648;BME280;70012;0.000;0.000;2024-02-23T04:14:20;98367.63;;;3.13;77.40
80648;BME280;70012;0.000;0.000;2024-02-23T04:16:46;98368.16;;;3.10;77.50
80648;BME280;70012;0.000;0.000;2024-02-23T04:19:13;98363.22;;;3.07;77.64
80648;BME280;70012;0.000;0.000;2024-02-23T04:21:40;98370.31;;;3.13;77.86
80648;BME280;70012;0.000;0.000;2024-02-23T04:24:07;98367.88;;;3.12;78.00
80648;BME280;70012;0.000;0.000;2024-02-23T04:26:35;98367.88;;;3.12;78.60
80648;BME280;70012;0.000;0.000;2024-02-23T04:29:02;98358.44;;;3.14;78.39
80648;BME280;70012;0.000;0.000;2024-02-23T04:31:29;98368.75;;;3.17;78.68
80648;BME280;70012;0.000;0.000;2024-02-23T04:33:55;98375.72;;;3.13;78.48
80648;BME280;70012;0.000;0.000;2024-02-23T04:36:22;98373.03;;;3.13;78.75
80648;BME280;70012;0.000;0.000;2024-02-23T04:38:49;98372.22;;;3.13;78.82
80648;BME280;70012;0.000;0.000;2024-02-23T04:41:19;98367.13;;;3.16;78.77
80648;BME280;70012;0.000;0.000;2024-02-23T04:43:47;98368.94;;;3.11;78.37
80648;BME280;70012;0.000;0.000;2024-02-23T04:46:14;98360.03;;;3.10;78.59
80648;BME280;70012;0.000;0.000;2024-02-23T04:48:42;98375.16;;;3.11;78.69
80648;BME280;70012;0.000;0.000;2024-02-23T04:51:09;98370.75;;;3.05;78.44
80648;BME280;70012;0.000;0.000;2024-02-23T04:53:37;98387.63;;;3.12;78.86
80648;BME280;70012;0.000;0.000;2024-02-23T04:56:05;98380.50;;;3.06;78.72
80648;BME280;70012;0.000;0.000;2024-02-23T04:58:32;98392.22;;;3.12;78.93
80648;BME280;70012;0.000;0.000;2024-02-23T05:00:58;98385.16;;;3.11;78.71
80648;BME280;70012;0.000;0.000;2024-02-23T05:03:25;98387.31;;;3.09;78.71
80648;BME280;70012;0.000;0.000;2024-02-23T05:05:53;98386.97;;;3.05;78.83
80648;BME280;70012;0.000;0.000;2024-02-23T05:08:21;98380.47;;;3.01;78.52
80648;BME280;70012;0.000;0.000;2024-02-23T05:10:48;98379.44;;;3.07;78.72
80648;BME280;70012;0.000;0.000;2024-02-23T05:13:15;98386.19;;;3.04;78.59
80648;BME280;70012;0.000;0.000;2024-02-23T05:15:41;98375.63;;;3.03;78.40
80648;BME280;70012;0.000;0.000;2024-02-23T05:18:08;98376.06;;;2.95;78.77
80648;BME280;70012;0.000;0.000;2024-02-23T05:20:40;98378.50;;;2.96;78.77
80648;BME280;70012;0.000;0.000;2024-02-23T05:23:06;98376.63;;;2.97;78.72
80648;BME280;70012;0.000;0.000;2024-02-23T05:25:34;98370.66;;;2.95;78.68
80648;BME280;70012;0.000;0.000;2024-02-23T05:28:01;98375.00;;;2.96;78.45
80648;BME280;70012;0.000;0.000;2024-02-23T05:30:28;98365.25;;;2.95;78.71
80648;BME280;70012;0.000;0.000;2024-02-23T05:32:58;98367.38;;;2.93;78.37
80648;BME280;70012;0.000;0.000;2024-02-23T05:35:25;98363.59;;;2.94;78.35
80648;BME280;70012;0.000;0.000;2024-02-23T05:37:53;98358.72;;;2.91;78.35
80648;BME280;70012;0.000;0.000;2024-02-23T05:40:20;98360.84;;;2.88;78.64
80648;BME280;70012;0.000;0.000;2024-02-23T05:42:47;98356.56;;;2.93;78.47
80648;BME280;70012;0.000;0.000;2024-02-23T05:45:14;98356.03;;;2.91;78.63
80648;BME280;70012;0.000;0.000;2024-02-23T05:47:42;98355.13;;;2.85;78.51
80648;BME280;70012;0.000;0.000;2024-02-23T05:50:13;98362.97;;;2.86;78.50
80648;BME280;70012;0.000;0.000;2024-02-23T05:52:40;98358.59;;;2.80;78.60
80648;BME280;70012;0.000;0.000;2024-02-23T05:55:07;98359.66;;;2.79;78.58
80648;BME280;70012;0.000;0.000;2024-02-23T05:57:34;98366.13;;;2.78;79.15
80648;BME280;70012;0.000;0.000;2024-02-23T06:00:01;98368.28;;;2.76;78.87
80648;BME280;70012;0.000;0.000;2024-02-23T06:02:29;98386.59;;;2.74;78.96
80648;BME280;70012;0.000;0.000;2024-02-23T06:04:56;98377.94;;;2.72;79.15
80648;BME280;70012;0.000;0.000;2024-02-23T06:07:23;98385.50;;;2.70;79.33
80648;BME280;70012;0.000;0.000;2024-02-23T06:09:56;98389.25;;;2.69;79.35
80648;BME280;70012;0.000;0.000;2024-02-23T06:12:25;98370.28;;;2.64;80.04
80648;BME280;70012;0.000;0.000;2024-02-23T06:14:53;98376.22;;;2.66;79.61
80648;BME280;70012;0.000;0.000;2024-02-23T06:17:22;98378.94;;;2.66;79.72
80648;BME280;70012;0.000;0.000;2024-02-23T06:19:50;98378.94;;;2.66;80.00
80648;BME280;70012;0.000;0.000;2024-02-23T06:22:17;98365.47;;;2.71;79.79
80648;BME280;70012;0.000;0.000;2024-02-23T06:24:47;98373.16;;;2.79;79.79
80648;BME280;70012;0.000;0.000;2024-02-23T06:27:14;98354.50;;;2.78;80.00
80648;BME280;70012;0.000;0.000;2024-02-23T06:29:41;98360.22;;;2.81;79.95
80648;BME280;70012;0.000;0.000;2024-02-23T06:32:09;98360.78;;;2.83;79.54
80648;BME280;70012;0.000;0.000;2024-02-23T06:34:36;98366.75;;;2.85;79.91
80648;BME280;70012;0.000;0.000;2024-02-23T06:37:03;98373.22;;;2.84;79.65
80648;BME280;70012;0.000;0.000;2024-02-23T06:39:29;98372.16;;;2.85;79.51
80648;BME280;70012;0.000;0.000;2024-02-23T06:41:56;98374.84;;;2.85;79.52
80648;BME280;70012;0.000;0.000;2024-02-23T06:44:24;98370.50;;;2.84;79.75
80648;BME280;70012;0.000;0.000;2024-02-23T06:46:51;98356.44;;;2.82;79.72
80648;BME280;70012;0.000;0.000;2024-02-23T06:49:18;98352.59;;;2.78;79.99
80648;BME280;70012;0.000;0.000;2024-02-23T06:51:45;98365.69;;;2.86;79.86
80648;BME280;70012;0.000;0.000;2024-02-23T06:54:12;98361.34;;;2.85;80.17
80648;BME280;70012;0.000;0.000;2024-02-23T06:56:38;98364.63;;;2.87;79.88
80648;BME280;70012;0.000;0.000;2024-02-23T06:59:05;98361.66;;;2.89;79.70
80648;BME280;70012;0.000;0.000;2024-02-23T07:01:32;98357.13;;;2.95;79.50
80648;BME280;70012;0.000;0.000;2024-02-23T07:04:05;98383.09;;;2.96;79.06
80648;BME280;70012;0.000;0.000;2024-02-23T07:06:32;98378.81;;;3.00;79.36
80648;BME280;70012;0.000;0.000;2024-02-23T07:09:01;98382.91;;;3.02;79.15
80648;BME280;70012;0.000;0.000;2024-02-23T07:11:30;98386.44;;;3.03;79.21
80648;BME280;70012;0.000;0.000;2024-02-23T07:13:57;98395.66;;;3.07;79.48
80648;BME280;70012;0.000;0.000;2024-02-23T07:16:24;98397.63;;;3.12;79.00
80648;BME280;70012;0.000;0.000;2024-02-23T07:18:52;98405.47;;;3.13;79.12
80648;BME280;70012;0.000;0.000;2024-02-23T07:21:19;98402.34;;;3.22;79.05
80648;BME280;70012;0.000;0.000;2024-02-23T07:23:45;98402.44;;;3.32;79.05
80648;BME280;70012;0.000;0.000;2024-02-23T07:26:14;98414.72;;;3.40;78.84
80648;BME280;70012;0.000;0.000;2024-02-23T07:28:41;98399.59;;;3.44;79.16
80648;BME280;70012;0.000;0.000;2024-02-23T07:31:11;98412.16;;;3.55;78.98
80648;BME280;70012;0.000;0.000;2024-02-23T07:33:38;98414.97;;;3.65;78.47
80648;BME280;70012;0.000;0.000;2024-02-23T07:36:05;98406.59;;;3.67;78.46
80648;BME280;70012;0.000;0.000;2024-02-23T07:38:32;98399.31;;;3.67;78.20
80648;BME280;70012;0.000;0.000;2024-02-23T07:41:00;98401.78;;;3.74;78.14
80648;BME280;70012;0.000;0.000;2024-02-23T07:43:27;98411.03;;;3.78;77.81
80648;BME280;70012;0.000;0.000;2024-02-23T07:45:55;98392.91;;;3.79;77.90
80648;BME280;70012;0.000;0.000;2024-02-23T07:48:22;98397.00;;;3.81;77.53
80648;BME280;70012;0.000;0.000;2024-02-23T07:50:49;98399.69;;;3.81;77.12
80648;BME280;70012;0.000;0.000;2024-02-23T07:53:16;98401.91;;;3.84;77.29
80648;BME280;70012;0.000;0.000;2024-02-23T07:55:43;98398.66;;;3.88;77.17
80648;BME280;70012;0.000;0.000;2024-02-23T07:58:09;98396.53;;;3.90;77.20
80648;BME280;70012;0.000;0.000;2024-02-23T08:00:37;98399.28;;;3.95;76.93
80648;BME280;70012;0.000;0.000;2024-02-23T08:03:05;98411.22;;;3.99;77.04
80648;BME280;70012;0.000;0.000;2024-02-23T08:05:32;98404.22;;;4.03;76.90
80648;BME280;70012;0.000;0.000;2024-02-23T08:07:59;98389.06;;;4.02;76.35
80648;BME280;70012;0.000;0.000;2024-02-23T08:10:26;98408.06;;;4.12;76.29
80648;BME280;70012;0.000;0.000;2024-02-23T08:12:54;98420.03;;;4.16;76.39
80648;BME280;70012;0.000;0.000;2024-02-23T08:15:21;98404.63;;;4.22;76.41
80648;BME280;70012;0.000;0.000;2024-02-23T08:17:48;98405.53;;;4.33;77.14
80648;BME280;70012;0.000;0.000;2024-02-23T08:20:14;98407.16;;;4.34;76.69
80648;BME280;70012;0.000;0.000;2024-02-23T08:22:41;98415.09;;;4.41;76.45
80648;BME280;70012;0.000;0.000;2024-02-23T08:25:09;98409.44;;;4.53;75.36
80648;BME280;70012;0.000;0.000;2024-02-23T08:27:41;98411.66;;;4.56;75.98
80648;BME280;70012;0.000;0.000;2024-02-23T08:30:08;98403.56;;;4.66;76.01
80648;BME280;70012;0.000;0.000;2024-02-23T08:32:35;98400.38;;;4.74;75.38
80648;BME280;70012;0.000;0.000;2024-02-23T08:35:03;98395.03;;;4.85;74.16
80648;BME280;70012;0.000;0.000;2024-02-23T08:37:30;98396.69;;;4.96;73.05
80648;BME280;70012;0.000;0.000;2024-02-23T08:39:57;98408.91;;;5.04;74.23
80648;BME280;70012;0.000;0.000;2024-02-23T08:42:24;98411.13;;;5.12;73.79
80648;BME280;70012;0.000;0.000;2024-02-23T08:44:51;98409.28;;;5.18;73.97
80648;BME280;70012;0.000;0.000;2024-02-23T08:47:18;98414.44;;;5.24;73.45
80648;BME280;70012;0.000;0.000;2024-02-23T08:49:45;98415.81;;;5.32;72.56
80648;BME280;70012;0.000;0.000;2024-02-23T08:52:12;98416.09;;;5.36;72.26
80648;BME280;70012;0.000;0.000;2024-02-23T08:54:39;98421.81;;;5.39;73.04
80648;BME280;70012;0.000;0.000;2024-02-23T08:57:05;98426.72;;;5.42;72.79
80648;BME280;70012;0.000;0.000;2024-02-23T08:59:32;98429.44;;;5.48;72.72
80648;BME280;70012;0.000;0.000;2024-02-23T09:01:59;98425.13;;;5.52;73.28
80648;BME280;70012;0.000;0.000;2024-02-23T09:04:26;98427.28;;;5.60;72.99
80648;BME280;70012;0.000;0.000;2024-02-23T09:06:53;98421.34;;;5.68;72.60
80648;BME280;70012;0.000;0.000;2024-02-23T09:09:20;98426.78;;;5.73;71.69
80648;BME280;70012;0.000;0.000;2024-02-23T09:11:48;98436.56;;;5.80;72.42
80648;BME280;70012;0.000;0.000;2024-02-23T09:14:16;98433.88;;;5.85;72.94
80648;BME280;70012;0.000;0.000;2024-02-23T09:16:42;98432.25;;;5.94;71.49
80648;BME280;70012;0.000;0.000;2024-02-23T09:19:09;98421.94;;;5.91;71.73
80648;BME280;70012;0.000;0.000;2024-02-23T09:21:37;98427.41;;;6.01;71.47
80648;BME280;70012;0.000;0.000;2024-02-23T09:24:04;98432.84;;;6.01;71.55
80648;BME280;70012;0.000;0.000;2024-02-23T09:26:31;98431.75;;;6.02;70.31
80648;BME280;70012;0.000;0.000;2024-02-23T09:28:58;98423.59;;;6.02;70.78
80648;BME280;70012;0.000;0.000;2024-02-23T09:31:25;98427.69;;;6.05;71.08
80648;BME280;70012;0.000;0.000;2024-02-23T09:33:55;98424.16;;;6.04;69.97
80648;BME280;70012;0.000;0.000;2024-02-23T09:36:22;98421.72;;;6.08;69.30
80648;BME280;70012;0.000;0.000;2024-02-23T09:38:51;98432.84;;;6.06;69.53
80648;BME280;70012;0.000;0.000;2024-02-23T09:41:20;98442.63;;;6.07;69.61
80648;BME280;70012;0.000;0.000;2024-02-23T09:43:48;98426.31;;;6.07;68.86
80648;BME280;70012;0.000;0.000;2024-02-23T09:46:16;98440.47;;;6.09;69.25
80648;BME280;70012;0.000;0.000;2024-02-23T09:48:44;98434.47;;;6.13;69.28
80648;BME280;70012;0.000;0.000;2024-02-23T09:51:12;98426.88;;;6.15;70.22
80648;BME280;70012;0.000;0.000;2024-02-23T09:53:41;98429.59;;;6.15;69.50
80648;BME280;70012;0.000;0.000;2024-02-23T09:56:09;98433.94;;;6.26;69.43
80648;BME280;70012;0.000;0.000;2024-02-23T09:58:36;98433.41;;;6.29;69.39
80648;BME280;70012;0.000;0.000;2024-02-23T10:01:04;98429.59;;;6.30;69.50
80648;BME280;70012;0.000;0.000;2024-02-23T10:03:31;98417.63;;;6.36;69.46
80648;BME280;70012;0.000;0.000;2024-02-23T10:05:59;98429.31;;;6.42;69.23
80648;BME280;70012;0.000;0.000;2024-02-23T10:08:28;98419.28;;;6.37;69.01
80648;BME280;70012;0.000;0.000;2024-02-23T10:10:55;98430.94;;;6.48;69.21
80648;BME280;70012;0.000;0.000;2024-02-23T10:13:23;98432.81;;;6.53;69.93
80648;BME280;70012;0.000;0.000;2024-02-23T10:15:53;98435.53;;;6.53;69.55
80648;BME280;70012;0.000;0.000;2024-02-23T10:18:39;98424.94;;;6.51;68.62
80648;BME280;70012;0.000;0.000;2024-02-23T10:21:07;98422.50;;;6.50;68.30
80648;BME280;70012;0.000;0.000;2024-02-23T10:23:34;98430.09;;;6.53;67.84
80648;BME280;70012;0.000;0.000;2024-02-23T10:26:07;98449.44;;;6.62;68.37
80648;BME280;70012;0.000;0.000;2024-02-23T10:28:36;98452.41;;;6.65;68.81
80648;BME280;70012;0.000;0.000;2024-02-23T10:31:07;98456.75;;;6.71;68.68
80648;BME280;70012;0.000;0.000;2024-02-23T10:33:39;98444.25;;;6.70;68.37
80648;BME280;70012;0.000;0.000;2024-02-23T10:36:07;98453.97;;;6.87;66.93
80648;BME280;70012;0.000;0.000;2024-02-23T10:38:38;98457.81;;;6.91;66.04
80648;BME280;70012;0.000;0.000;2024-02-23T10:41:09;98458.59;;;6.97;66.37
80648;BME280;70012;0.000;0.000;2024-02-23T10:43:45;98477.91;;;7.05;67.13
80648;BME280;70012;0.000;0.000;2024-02-23T10:46:13;98482.25;;;7.12;67.41
80648;BME280;70012;0.000;0.000;2024-02-23T10:48:44;98483.06;;;7.12;66.39
80648;BME280;70012;0.000;0.000;2024-02-23T10:51:15;98472.16;;;7.12;67.07
80648;BME280;70012;0.000;0.000;2024-02-23T10:53:48;98486.06;;;7.11;66.69
80648;BME280;70012;0.000;0.000;2024-02-23T10:56:18;98480.03;;;7.14;66.94
80648;BME280;70012;0.000;0.000;2024-02-23T10:58:45;98480.03;;;7.14;67.74
80648;BME280;70012;0.000;0.000;2024-02-23T11:01:13;98493.66;;;7.19;67.89
80648;BME280;70012;0.000;0.000;2024-02-23T11:03:42;98486.84;;;7.21;68.38
80648;BME280;70012;0.000;0.000;2024-02-23T11:06:11;98482.19;;;7.22;70.04
80648;BME280;70012;0.000;0.000;2024-02-23T11:08:38;98474.03;;;7.22;69.58
80648;BME280;70012;0.000;0.000;2024-02-23T11:11:09;98480.84;;;7.25;69.62
80648;BME280;70012;0.000;0.000;2024-02-23T11:13:40;98474.84;;;7.28;69.76
80648;BME280;70012;0.000;0.000;2024-02-23T11:16:10;98463.69;;;7.24;68.08
80648;BME280;70012;0.000;0.000;2024-02-23T11:18:39;98467.50;;;7.23;68.73
80648;BME280;70012;0.000;0.000;2024-02-23T11:21:09;98474.00;;;7.27;68.32
80648;BME280;70012;0.000;0.000;2024-02-23T11:23:49;98469.13;;;7.29;69.06
80648;BME280;70012;0.000;0.000;2024-02-23T11:26:18;98456.56;;;7.33;66.92
80648;BME280;70012;0.000;0.000;2024-02-23T11:31:24;98460.63;;;7.36;67.09
80648;BME280;70012;0.000;0.000;2024-02-23T11:33:53;98456.31;;;7.35;66.97
80648;BME280;70012;0.000;0.000;2024-02-23T11:36:32;98459.28;;;7.39;66.20
80648;BME280;70012;0.000;0.000;2024-02-23T11:39:00;98447.81;;;7.42;66.46
80648;BME280;70012;0.000;0.000;2024-02-23T11:41:28;98456.81;;;7.47;66.09
80648;BME280;70012;0.000;0.000;2024-02-23T11:43:56;98451.66;;;7.46;65.59
80648;BME280;70012;0.000;0.000;2024-02-23T11:46:25;98460.63;;;7.46;65.61
80648;BME280;70012;0.000;0.000;2024-02-23T11:48:52;98447.28;;;7.45;65.38
80648;BME280;70012;0.000;0.000;2024-02-23T11:51:23;98450.53;;;7.47;66.03
80648;BME280;70012;0.000;0.000;2024-02-23T11:53:55;98441.56;;;7.46;66.03
80648;BME280;70012;0.000;0.000;2024-02-23T11:56:25;98448.84;;;7.56;66.08
80648;BME280;70012;0.000;0.000;2024-02-23T11:58:53;98441.50;;;7.62;66.02
80648;BME280;70012;0.000;0.000;2024-02-23T12:01:21;98446.66;;;7.63;65.75
80648;BME280;70012;0.000;0.000;2024-02-23T12:03:49;98446.94;;;7.62;65.05
80648;BME280;70012;0.000;0.000;2024-02-23T12:06:16;98453.44;;;7.66;65.69
80648;BME280;70012;0.000;0.000;2024-02-23T12:08:43;98452.06;;;7.68;65.50
80648;BME280;70012;0.000;0.000;2024-02-23T12:11:13;98459.66;;;7.77;66.34
80648;BME280;70012;0.000;0.000;2024-02-23T12:13:41;98448.16;;;7.85;65.60
80648;BME280;70012;0.000;0.000;2024-02-23T12:16:08;98451.09;;;7.94;65.09
80648;BME280;70012;0.000;0.000;2024-02-23T12:18:36;98444.22;;;8.01;65.93
80648;BME280;70012;0.000;0.000;2024-02-23T12:21:09;98444.72;;;8.09;65.12
80648;BME280;70012;0.000;0.000;2024-02-23T12:23:40;98443.59;;;8.15;64.37
80648;BME280;70012;0.000;0.000;2024-02-23T12:26:08;98434.31;;;8.16;64.11
80648;BME280;70012;0.000;0.000;2024-02-23T12:28:36;98447.94;;;8.16;63.04
80648;BME280;70012;0.000;0.000;2024-02-23T12:31:04;98452.06;;;8.13;64.39
80648;BME280;70012;0.000;0.000;2024-02-23T12:33:33;98455.06;;;8.12;63.54
80648;BME280;70012;0.000;0.000;2024-02-23T12:36:03;98440.91;;;8.10;64.43
80648;BME280;70012;0.000;0.000;2024-02-23T12:38:31;98452.34;;;8.12;65.04
80648;BME280;70012;0.000;0.000;2024-02-23T12:41:00;98436.25;;;8.10;65.31
80648;BME280;70012;0.000;0.000;2024-02-23T12:43:27;98434.06;;;8.12;64.51
80648;BME280;70012;0.000;0.000;2024-02-23T12:45:54;98431.41;;;8.07;64.75
80648;BME280;70012;0.000;0.000;2024-02-23T12:48:21;98443.38;;;8.06;64.65
80648;BME280;70012;0.000;0.000;2024-02-23T12:50:51;98449.63;;;8.07;65.54
80648;BME280;70012;0.000;0.000;2024-02-23T12:53:38;98441.47;;;8.07;66.10
80648;BME280;70012;0.000;0.000;2024-02-23T12:56:10;98440.91;;;8.10;65.65
80648;BME280;70012;0.000;0.000;2024-02-23T12:58:41;98436.00;;;8.12;65.28
80648;BME280;70012;0.000;0.000;2024-02-23T13:01:08;98439.78;;;8.16;64.37
80648;BME280;70012;0.000;0.000;2024-02-23T13:03:37;98446.28;;;8.20;64.35
80648;BME280;70012;0.000;0.000;2024-02-23T13:06:04;98442.44;;;8.21;64.32
80648;BME280;70012;0.000;0.000;2024-02-23T13:08:32;98446.81;;;8.22;64.78
80648;BME280;70012;0.000;0.000;2024-02-23T13:10:59;98449.28;;;8.18;65.91
80648;BME280;70012;0.000;0.000;2024-02-23T13:13:27;98430.00;;;8.10;65.98
80648;BME280;70012;0.000;0.000;2024-02-23T13:15:55;98440.88;;;8.15;64.89
80648;BME280;70012;0.000;0.000;2024-02-23T13:18:23;98438.72;;;8.12;64.27
80648;BME280;70012;0.000;0.000;2024-02-23T13:20:51;98437.28;;;8.20;63.43
80648;BME280;70012;0.000;0.000;2024-02-23T13:23:18;98436.41;;;8.29;64.14
80648;BME280;70012;0.000;0.000;2024-02-23T13:25:45;98430.34;;;8.38;64.34
80648;BME280;70012;0.000;0.000;2024-02-23T13:28:12;98443.91;;;8.48;62.87